North Delran, New Jersey
Current Conditions -  °F | °C
As of 8:54 AM on Friday 28 Nov 2014 (Local Time) from KPNE Reporting Station
Clear Clear  
Wind Chill: 28°   Ceiling: Unl
Heat Index: 36°   Visibility: 10mi
Dew Point: 22°   Wind: 12mph
Humidity: 57%   Direction: 310°NW
Pressure: 30.24"   Gusts: NA
Location:  40.0192°N, 74.9489°W
Report Text: KPNE 281354Z AUTO 31010KT 10SM CLR 02/M06 A3024 RMK AO2 SLP240 T00221056 TSNO
Loading
Personal Weather Stations






























Interactive Weather Map New forecast layout! Learn more

10-Day Weather Forecast

Advertisements
Track Severe Weather on mobile